If you wish to contribute or participate in the discussions about articles you are invited to join SKYbrary as a registered user

 Actions

Cognac-Châteaubernard (BA 709) Air Base

From SKYbrary Wiki

LFBG
Airport
ICAO: LFBG – IATA: CNG
Summary
Name Cognac-Châteaubernard (BA 709) Air Base
Region Europe
Territory France FR.gif
Location , Poitou-Charentes
Serving Cognac
Elevation 31.09 m
102 ft
102 ft31.09 m
Type medium airport
Coordinates 45° 39' 30.00" N, 0° 19' 3.00" W
Runways
Designator Length Width Surface ROPS
5/23 2423 m7,949.475 ft
45 m147.638 ft
PEM /
9/27 1875 m6,151.575 ft
60 m196.85 ft
MAC /


METAR
Observation LFBG 181600Z AUTO 24003KT 9999 SCT022/// SCT086/// OVC110/// ///TCU 19/16 Q1015
Station Cognac
Date/Time 18 August 2019 16:00:00
Wind direction 240°
Wind speed 03 kts
Lowest cloud amount scattered clouds
Temperature 19°C
Dew point 16°C
Humidity 82%
QNH 1015 hPa
Weather condition n/a